Historyczne dane pomiarowe

Dodano dane terminowe – wersja testowa.

Dane z okresu 1951-2018

Wersja bazy: 1.27 [2018-11-28, lista zmian], aktualizacja planowana na 2018-12-07

Dane meteo z obszaru Polski uzyskane na podstawie danych udostępnionych przez Instytut Meteorologii i Gospodarki Wodnej – Państwowy Instytut Badawczy.

 

Wybierz Datę:    

       

TemperaturaWilgotnośćWiatrCiśnienieOpadyŚniegCzas trwania zjawisk
 Stacja t tx tn tng RH VA  wxwx mslp ppp RRR   cm mm wxwxwxwxwxwxwx
2015-11-08 11.0 16.4 5.9 1.8-- 1.0----- 0.0------------
2015-11-09 10.1 15.8 1.6 0.0-- 7.7----- 1.9------------
2015-11-10 13.3 15.5 10.8 10.7-- 8.0----- 0.1------------
2015-11-11 14.1 15.7 13.0 12.8-- 8.0----- 0.0------------
2015-11-12 11.0 13.8 9.0 6.5-- 7.3----- 0.0------------
2015-11-13 6.8 13.3 0.3 0.2-- 6.7----- 0.6------------
2015-11-14 7.6 10.9 5.5 4.5-- 4.0----- 1.0------------
2015-11-15 8.2 12.9 4.5 3.9-- 8.0----- 14.9------------
2015-11-16 8.6 11.5 5.7 6.1-- 8.0----- 3.9------------
2015-11-17 10.3 12.8 7.8 7.1-- 7.7----- 6.5------------
2015-11-18 10.8 14.5 5.9 5.7-- 6.7----- 1.8------------
2015-11-19 10.9 14.8 7.4 6.1-- 4.3----- 0.8------------
2015-11-20 6.6 10.8 4.0 3.0-- 5.7----- 2.1------------
2015-11-21 3.6 7.0 1.3 0.0-- 6.7----- 0.2------------
2015-11-22 0.2 3.8 -1.9 -3.5-- 4.7----- 0.8------------
2015-11-23 -2.1 1.8 -5.9 -6.0-- 5.7----- 0.2------------
2015-11-24 0.1 4.8 -2.2 -3.7-- 2.3----- 0.0------------
2015-11-25 0.2 3.3 -3.5 -5.2-- 7.7----- 0.0------------
2015-11-26 2.2 5.9 -0.2 -2.0-- 7.7----- 0.0------------
2015-11-27 2.7 4.9 0.3 0.8-- 8.0----- 0.0------------
2015-11-28 0.3 4.3 -3.3 -4.0-- 3.3----- 0.8------------
2015-11-29 3.3 5.8 -0.2 -0.8-- 8.0----- 4.7------------
2015-11-30 5.8 8.8 2.6 2.3-- 6.0----- 8.1------------
2015-12-01 4.7 7.4 2.1 2.1-- 5.7----- 2.2------------
2015-12-02 6.6 10.8 2.9 2.5-- 8.0----- 2.3------------
2015-12-03 5.7 10.4 2.4 -0.6-- 5.7----- 0.0------------
2015-12-04 4.9 11.1 -0.7 -1.5-- 6.3----- 0.1------------
2015-12-05 5.8 10.0 2.4 1.0-- 3.3----- 0.0------------
2015-12-06 8.7 12.1 5.7 3.3-- 3.7----- 0.0------------
2015-12-07 10.1 11.8 9.2 7.9-- 7.7----- 0.0------------
1117.2 ms

 

Źródłem pochodzenia danych jest Instytut Meteorologii i Gospodarki Wodnej – Państwowy Instytut Badawczy. Dane Instytutu Meteorologii i Gospodarki Wodnej – Państwowego Instytutu Badawczego zostały przetworzone.

Dane źródłowe można odnaleźć na stronie https://dane.imgw.pl